createdAt,value
2022-07-26T00:01:40.050Z,16.20
2022-07-26T00:04:09.855Z,10.00
2022-07-26T00:06:36.883Z,9.18
2022-07-26T00:09:04.818Z,10.70
2022-07-26T00:11:34.061Z,12.45
2022-07-26T00:14:05.585Z,12.63
2022-07-26T00:16:36.231Z,9.40
2022-07-26T00:19:07.960Z,9.70
2022-07-26T00:21:40.760Z,9.57
2022-07-26T00:24:13.275Z,8.30
2022-07-26T00:26:40.452Z,8.55
2022-07-26T00:29:07.973Z,8.75
2022-07-26T00:31:35.605Z,8.48
2022-07-26T00:34:02.634Z,10.45
2022-07-26T00:36:29.905Z,8.98
2022-07-26T00:38:57.407Z,9.52
2022-07-26T00:41:24.492Z,10.52
2022-07-26T00:43:57.997Z,11.70
2022-07-26T00:46:25.965Z,10.13
2022-07-26T00:48:53.363Z,13.45
2022-07-26T00:51:21.175Z,10.18
2022-07-26T00:53:52.554Z,10.48
2022-07-26T00:56:20.695Z,11.95
2022-07-26T00:58:47.699Z,9.27
2022-07-26T01:01:15.352Z,11.10
2022-07-26T01:03:42.853Z,14.32
2022-07-26T01:06:12.532Z,19.02
2022-07-26T01:08:39.856Z,51.67
2022-07-26T01:11:07.017Z,32.90
2022-07-26T01:13:35.519Z,38.08
2022-07-26T01:16:05.890Z,42.92
2022-07-26T01:18:37.926Z,23.15
2022-07-26T01:21:13.496Z,46.47
2022-07-26T01:23:44.739Z,74.45
2022-07-26T01:26:12.600Z,83.60
2022-07-26T01:28:45.082Z,59.42
2022-07-26T01:31:12.423Z,43.15
2022-07-26T01:33:42.570Z,26.63
2022-07-26T01:36:10.524Z,19.35
2022-07-26T01:38:38.077Z,30.98
2022-07-26T01:41:05.375Z,30.67
2022-07-26T01:43:32.783Z,17.77
2022-07-26T01:46:03.177Z,17.27
2022-07-26T01:48:31.310Z,11.45
2022-07-26T01:50:59.388Z,28.38
2022-07-26T01:53:27.344Z,14.98
2022-07-26T01:55:54.731Z,8.70
2022-07-26T01:58:25.570Z,18.30
2022-07-26T02:00:52.725Z,10.60
2022-07-26T02:03:22.586Z,8.13
2022-07-26T02:05:50.327Z,8.63
2022-07-26T02:08:17.936Z,9.13
2022-07-26T02:11:03.799Z,15.65
2022-07-26T02:13:40.520Z,9.00
2022-07-26T02:16:10.771Z,11.60
2022-07-26T02:18:38.594Z,9.93
2022-07-26T02:21:08.138Z,9.20
2022-07-26T02:23:35.870Z,9.52
2022-07-26T02:26:08.512Z,7.80
2022-07-26T02:28:38.415Z,8.85
2022-07-26T02:31:05.974Z,7.55
2022-07-26T02:33:33.426Z,6.10
2022-07-26T02:36:00.519Z,8.07
2022-07-26T02:38:27.535Z,8.93
2022-07-26T02:40:54.735Z,8.55
2022-07-26T02:43:22.606Z,7.25
2022-07-26T02:46:01.138Z,9.18
2022-07-26T02:48:31.331Z,8.77
2022-07-26T02:50:58.571Z,6.15
2022-07-26T02:53:25.928Z,8.95
2022-07-26T02:55:53.232Z,6.22
2022-07-26T02:58:25.206Z,7.53
2022-07-26T03:00:54.892Z,11.40
2022-07-26T03:03:22.658Z,9.10
2022-07-26T03:05:49.724Z,9.57
2022-07-26T03:08:19.190Z,8.18
2022-07-26T03:10:46.549Z,8.00
2022-07-26T03:13:13.682Z,7.75
2022-07-26T03:15:41.605Z,7.00
2022-07-26T03:18:11.144Z,5.72
2022-07-26T03:20:38.281Z,9.23
2022-07-26T03:23:05.457Z,9.25
2022-07-26T03:25:32.524Z,11.07
2022-07-26T03:28:05.016Z,8.00
2022-07-26T03:30:32.509Z,8.45
2022-07-26T03:32:59.644Z,7.75
2022-07-26T03:35:26.730Z,6.63
2022-07-26T03:37:56.111Z,8.52
2022-07-26T03:40:23.377Z,7.68
2022-07-26T03:42:50.375Z,7.45
2022-07-26T03:45:17.549Z,7.03
2022-07-26T03:47:46.488Z,12.45
2022-07-26T03:50:13.910Z,7.68
2022-07-26T03:52:41.617Z,7.45
2022-07-26T03:55:27.699Z,7.32
2022-07-26T03:57:54.816Z,10.00
2022-07-26T04:00:21.739Z,5.82
2022-07-26T04:02:51.260Z,9.00
2022-07-26T04:05:21.742Z,5.68
2022-07-26T04:07:53.306Z,6.70
2022-07-26T04:10:22.307Z,8.98
2022-07-26T04:12:52.452Z,11.13
2022-07-26T04:15:21.337Z,8.23
2022-07-26T04:17:51.166Z,9.70
2022-07-26T04:20:18.262Z,11.23
2022-07-26T04:22:45.278Z,6.78
2022-07-26T04:25:12.492Z,9.45
2022-07-26T04:27:39.555Z,7.55
2022-07-26T04:30:14.056Z,9.63
2022-07-26T04:32:42.075Z,8.32
2022-07-26T04:35:09.628Z,7.00
2022-07-26T04:37:43.264Z,9.65
2022-07-26T04:40:15.962Z,9.98
2022-07-26T04:42:43.059Z,6.38
2022-07-26T04:45:11.345Z,7.35
2022-07-26T04:47:42.630Z,5.53
2022-07-26T04:50:13.640Z,8.15
2022-07-26T04:52:42.678Z,8.23
2022-07-26T04:55:12.561Z,7.72
2022-07-26T04:57:39.705Z,6.80
2022-07-26T05:00:21.362Z,8.82
2022-07-26T05:02:50.721Z,6.70
2022-07-26T05:05:18.029Z,5.75
2022-07-26T05:07:50.742Z,6.93
2022-07-26T05:10:19.190Z,6.13
2022-07-26T05:12:47.744Z,10.95
2022-07-26T05:15:15.639Z,10.35
2022-07-26T05:17:43.665Z,9.05
2022-07-26T05:20:14.359Z,6.22
2022-07-26T05:22:41.849Z,7.35
2022-07-26T05:25:11.371Z,8.80
2022-07-26T05:27:39.960Z,6.25
2022-07-26T05:30:09.575Z,8.55
2022-07-26T05:32:37.102Z,9.75
2022-07-26T05:35:04.507Z,6.80
2022-07-26T05:37:31.616Z,7.15
2022-07-26T05:39:58.879Z,11.73
2022-07-26T05:42:26.847Z,7.88
2022-07-26T05:44:53.802Z,8.45
2022-07-26T05:47:25.666Z,9.48
2022-07-26T05:49:52.592Z,8.30
2022-07-26T05:52:19.701Z,9.02
2022-07-26T05:54:47.022Z,12.13
2022-07-26T05:57:13.983Z,13.15
2022-07-26T05:59:40.984Z,9.90
2022-07-26T06:02:08.808Z,9.75
2022-07-26T06:04:36.354Z,6.55
2022-07-26T06:07:03.444Z,5.72
2022-07-26T06:09:30.720Z,8.43
2022-07-26T06:11:58.221Z,7.95
2022-07-26T06:14:29.978Z,6.75
2022-07-26T06:16:59.546Z,6.93
2022-07-26T06:19:29.022Z,6.05
2022-07-26T06:21:55.981Z,10.95
2022-07-26T06:24:23.902Z,7.22
2022-07-26T06:26:56.778Z,6.28
2022-07-26T06:29:32.001Z,10.70
2022-07-26T06:31:59.739Z,10.07
2022-07-26T06:34:27.006Z,9.07
2022-07-26T06:36:54.176Z,7.07
2022-07-26T06:39:21.195Z,7.57
2022-07-26T06:41:49.119Z,8.30
2022-07-26T06:44:22.851Z,7.28
2022-07-26T06:46:50.367Z,5.95
2022-07-26T06:49:21.923Z,8.82
2022-07-26T06:51:49.468Z,7.97
2022-07-26T06:54:17.184Z,6.25
2022-07-26T06:56:44.677Z,9.15
2022-07-26T06:59:13.990Z,7.38
2022-07-26T07:01:58.036Z,6.57
2022-07-26T07:04:31.571Z,7.55
2022-07-26T07:07:05.948Z,5.05
2022-07-26T07:09:38.618Z,6.83
2022-07-26T07:12:09.813Z,11.10
2022-07-26T07:14:39.532Z,13.50
2022-07-26T07:17:12.058Z,9.77
2022-07-26T07:19:41.963Z,9.63
2022-07-26T07:22:12.260Z,8.90
2022-07-26T07:24:41.864Z,8.70
2022-07-26T07:27:10.594Z,10.07
2022-07-26T07:29:41.403Z,6.60
2022-07-26T07:32:18.437Z,7.30
2022-07-26T07:34:48.550Z,7.15
2022-07-26T07:37:17.919Z,10.18
2022-07-26T07:39:50.759Z,6.72
2022-07-26T07:42:19.771Z,8.30
2022-07-26T07:44:47.011Z,5.85
2022-07-26T07:47:14.340Z,5.07
2022-07-26T07:49:41.735Z,10.38
2022-07-26T07:52:09.075Z,7.93
2022-07-26T07:54:38.542Z,11.85
2022-07-26T07:57:06.042Z,10.73
2022-07-26T07:59:33.394Z,11.23
2022-07-26T08:02:06.862Z,7.70
2022-07-26T08:04:36.246Z,7.72
2022-07-26T08:07:03.407Z,20.13
2022-07-26T08:09:30.586Z,15.60
2022-07-26T08:12:01.271Z,14.63
2022-07-26T08:14:29.138Z,9.73
2022-07-26T08:16:56.518Z,11.25
2022-07-26T08:19:23.492Z,9.18
2022-07-26T08:21:54.445Z,6.20
2022-07-26T08:24:21.767Z,9.00
2022-07-26T08:26:53.639Z,6.00
2022-07-26T08:29:21.080Z,7.72
2022-07-26T08:31:50.805Z,8.32
2022-07-26T08:34:18.466Z,7.00
2022-07-26T08:37:14.232Z,6.80
2022-07-26T08:39:33.181Z,6.45
2022-07-26T08:42:02.999Z,8.40
2022-07-26T08:44:32.867Z,4.70
2022-07-26T08:47:00.231Z,8.27
2022-07-26T08:49:27.374Z,5.80
2022-07-26T08:51:54.904Z,5.53
2022-07-26T08:54:27.414Z,5.75
2022-07-26T08:56:54.472Z,8.45
2022-07-26T08:59:24.511Z,5.88
2022-07-26T09:01:56.148Z,6.93
2022-07-26T09:04:35.386Z,9.50
2022-07-26T09:07:18.875Z,7.50
2022-07-26T09:09:55.272Z,6.20
2022-07-26T09:12:26.118Z,5.55
2022-07-26T09:14:54.317Z,5.53
2022-07-26T09:17:24.104Z,6.25
2022-07-26T09:20:05.764Z,7.20
2022-07-26T09:22:35.467Z,4.70
2022-07-26T09:25:03.033Z,5.47
2022-07-26T09:27:37.065Z,8.63
2022-07-26T09:30:08.813Z,6.60
2022-07-26T09:32:36.937Z,4.72
2022-07-26T09:35:50.018Z,6.95
2022-07-26T09:38:15.204Z,8.15
2022-07-26T09:40:42.561Z,5.22
2022-07-26T09:43:24.014Z,6.07
2022-07-26T09:46:07.856Z,6.65
2022-07-26T09:49:08.208Z,8.20
2022-07-26T09:51:46.966Z,5.25
2022-07-26T09:54:31.160Z,9.07
2022-07-26T09:56:58.984Z,4.95
2022-07-26T09:59:27.765Z,8.60
2022-07-26T10:01:57.723Z,4.78
2022-07-26T10:04:26.089Z,4.65
2022-07-26T10:06:54.027Z,10.35
2022-07-26T10:09:23.918Z,6.55
2022-07-26T10:11:58.136Z,5.35
2022-07-26T10:14:33.454Z,5.20
2022-07-26T10:17:34.937Z,6.80
2022-07-26T10:20:09.469Z,6.30
2022-07-26T10:22:50.522Z,6.50
2022-07-26T10:25:17.730Z,5.25
2022-07-26T10:27:47.641Z,5.57
2022-07-26T10:30:18.543Z,6.85
2022-07-26T10:33:01.092Z,8.30
2022-07-26T10:35:34.738Z,6.95
2022-07-26T10:38:01.854Z,7.38
2022-07-26T10:40:32.935Z,7.30
2022-07-26T10:43:38.877Z,6.90
2022-07-26T10:46:16.154Z,5.30
2022-07-26T10:49:09.691Z,7.10
2022-07-26T10:51:41.195Z,6.55
2022-07-26T10:54:14.097Z,7.47
2022-07-26T10:56:41.626Z,8.35
2022-07-26T10:59:08.633Z,6.10
2022-07-26T11:01:43.120Z,4.90
2022-07-26T11:04:25.872Z,8.18
2022-07-26T11:07:00.701Z,6.93
2022-07-26T11:09:35.022Z,14.10
2022-07-26T11:12:18.626Z,8.90
2022-07-26T11:14:48.533Z,7.60
2022-07-26T11:17:32.098Z,14.95
2022-07-26T11:19:59.400Z,6.18
2022-07-26T11:22:34.693Z,9.15
2022-07-26T11:25:03.950Z,7.40
2022-07-26T11:27:31.469Z,7.10
2022-07-26T11:30:07.678Z,9.20
2022-07-26T11:32:36.151Z,6.82
2022-07-26T11:35:07.113Z,6.00
2022-07-26T11:37:52.672Z,6.70
2022-07-26T11:43:08.580Z,9.95
2022-07-26T11:45:35.892Z,5.68
2022-07-26T11:48:04.838Z,10.15
2022-07-26T11:50:41.560Z,10.05
2022-07-26T11:53:22.086Z,7.75
2022-07-26T11:55:52.144Z,10.75
2022-07-26T11:58:19.486Z,6.40
2022-07-26T12:00:49.225Z,5.60
2022-07-26T12:03:21.901Z,6.75
2022-07-26T12:06:10.149Z,9.90
2022-07-26T12:08:55.755Z,7.50
2022-07-26T12:11:36.892Z,6.70
2022-07-26T12:14:05.121Z,5.50
2022-07-26T12:16:36.692Z,7.28
2022-07-26T12:19:06.179Z,3.80
2022-07-26T12:21:48.460Z,7.05
2022-07-26T12:24:58.003Z,4.85
2022-07-26T12:27:33.504Z,7.40
2022-07-26T12:30:02.611Z,8.85
2022-07-26T12:32:32.610Z,5.82
2022-07-26T12:35:00.908Z,11.15
2022-07-26T12:37:40.674Z,7.57
2022-07-26T12:40:11.549Z,11.25
2022-07-26T12:43:00.274Z,10.77
2022-07-26T12:45:34.915Z,12.80
2022-07-26T12:48:10.214Z,15.38
2022-07-26T12:50:40.174Z,19.38
2022-07-26T12:53:12.661Z,18.30
2022-07-26T12:55:40.787Z,22.80
2022-07-26T12:58:10.438Z,24.23
2022-07-26T13:00:37.542Z,30.98
2022-07-26T13:03:07.783Z,28.10
2022-07-26T13:05:34.879Z,36.08
2022-07-26T13:08:01.995Z,41.45
2022-07-26T13:10:34.178Z,30.63
2022-07-26T13:13:01.733Z,34.33
2022-07-26T13:15:36.494Z,29.75
2022-07-26T13:18:10.103Z,24.80
2022-07-26T13:20:41.931Z,23.33
2022-07-26T13:23:17.258Z,23.63
2022-07-26T13:25:49.726Z,27.13
2022-07-26T13:28:17.621Z,28.98
2022-07-26T13:30:45.344Z,26.27
2022-07-26T13:33:16.770Z,30.75
2022-07-26T13:35:44.063Z,33.55
2022-07-26T13:38:13.541Z,29.35
2022-07-26T13:40:43.014Z,33.97
2022-07-26T13:43:12.496Z,35.58
2022-07-26T13:45:39.569Z,27.98
2022-07-26T13:48:09.351Z,34.72
2022-07-26T13:50:36.653Z,28.65
2022-07-26T13:53:03.993Z,32.97
2022-07-26T13:55:31.524Z,32.92
2022-07-26T13:57:59.055Z,28.35
2022-07-26T14:00:32.782Z,33.28
2022-07-26T14:03:02.680Z,30.80
2022-07-26T14:05:29.820Z,31.55
2022-07-26T14:07:56.910Z,30.75
2022-07-26T14:10:24.959Z,34.50
2022-07-26T14:12:53.538Z,34.28
2022-07-26T14:15:22.980Z,31.35
2022-07-26T14:17:52.473Z,31.50
2022-07-26T14:20:20.833Z,29.55
2022-07-26T14:22:53.552Z,29.30
2022-07-26T14:25:22.596Z,32.83
2022-07-26T14:27:53.145Z,28.92
2022-07-26T14:30:23.931Z,29.70
2022-07-26T14:32:53.479Z,31.98
2022-07-26T14:35:20.490Z,33.60
2022-07-26T14:37:50.098Z,29.73
2022-07-26T14:40:20.022Z,33.75
2022-07-26T14:42:47.151Z,35.28
2022-07-26T14:45:16.655Z,35.03
2022-07-26T14:47:44.531Z,35.03
2022-07-26T14:50:14.796Z,37.00
2022-07-26T14:52:45.511Z,35.08
2022-07-26T14:55:13.746Z,38.05
2022-07-26T14:57:41.447Z,38.95
2022-07-26T15:00:11.794Z,41.40
2022-07-26T15:02:47.199Z,43.92
2022-07-26T15:05:15.826Z,44.78
2022-07-26T15:07:43.979Z,48.13
2022-07-26T15:10:13.636Z,49.67
2022-07-26T15:12:43.614Z,47.15
2022-07-26T15:15:11.478Z,46.58
2022-07-26T15:17:38.667Z,51.20
2022-07-26T15:20:08.529Z,49.17
2022-07-26T15:22:38.369Z,48.80
2022-07-26T15:25:09.039Z,51.72
2022-07-26T15:27:38.735Z,50.40
2022-07-26T15:30:13.564Z,50.35
2022-07-26T15:32:44.477Z,49.92
2022-07-26T15:35:16.185Z,50.88
2022-07-26T15:37:48.157Z,47.78
2022-07-26T15:40:15.451Z,56.63
2022-07-26T15:42:44.291Z,43.47
2022-07-26T15:45:13.459Z,51.38
2022-07-26T15:47:54.956Z,48.78
2022-07-26T15:50:27.349Z,45.22
2022-07-26T15:52:54.601Z,46.47
2022-07-26T15:55:21.874Z,43.75
2022-07-26T15:57:49.272Z,42.67
2022-07-26T16:00:16.978Z,41.58
2022-07-26T16:02:44.312Z,42.03
2022-07-26T16:05:12.256Z,34.85
2022-07-26T16:07:44.127Z,35.63
2022-07-26T16:10:13.671Z,32.15
2022-07-26T16:12:42.009Z,29.58
2022-07-26T16:15:12.248Z,30.00
2022-07-26T16:17:40.612Z,29.52
2022-07-26T16:20:10.924Z,27.30
2022-07-26T16:22:41.278Z,25.48
2022-07-26T16:25:13.685Z,28.08
2022-07-26T16:27:43.949Z,29.38
2022-07-26T16:30:15.551Z,23.08
2022-07-26T16:32:43.420Z,21.52
2022-07-26T16:35:11.923Z,19.58
2022-07-26T16:37:39.914Z,18.27
2022-07-26T16:40:08.959Z,20.73
2022-07-26T16:42:36.660Z,19.25
2022-07-26T16:45:04.710Z,20.17
2022-07-26T16:47:32.245Z,22.23
2022-07-26T16:50:12.025Z,22.08
2022-07-26T16:52:39.397Z,21.60
2022-07-26T16:55:15.436Z,25.30
2022-07-26T16:57:43.038Z,24.83
2022-07-26T17:00:17.959Z,24.25
2022-07-26T17:02:45.524Z,22.45
2022-07-26T17:05:12.881Z,24.85
2022-07-26T17:07:40.112Z,23.05
2022-07-26T17:10:09.363Z,20.25
2022-07-26T17:12:37.105Z,21.67
2022-07-26T17:15:05.389Z,17.77
2022-07-26T17:17:35.346Z,17.17
2022-07-26T17:20:02.975Z,15.75
2022-07-26T17:22:30.255Z,14.75
2022-07-26T17:24:57.614Z,18.67
2022-07-26T17:27:24.773Z,17.95
2022-07-26T17:30:14.840Z,18.42
2022-07-26T17:32:44.574Z,19.13
2022-07-26T17:35:11.966Z,16.98
2022-07-26T17:37:42.656Z,15.30
2022-07-26T17:40:11.008Z,12.23
2022-07-26T17:42:38.774Z,11.40
2022-07-26T17:45:09.789Z,12.07
2022-07-26T17:47:37.529Z,11.73
2022-07-26T17:50:35.355Z,12.77
2022-07-26T17:52:55.441Z,11.30
2022-07-26T17:55:22.905Z,12.25
2022-07-26T17:57:51.287Z,13.02
2022-07-26T18:00:20.627Z,13.98
2022-07-26T18:02:52.685Z,12.27
2022-07-26T18:05:20.708Z,11.48
2022-07-26T18:07:47.931Z,11.57
2022-07-26T18:10:15.233Z,15.10
2022-07-26T18:12:45.224Z,11.90
2022-07-26T18:15:12.796Z,12.32
2022-07-26T18:17:40.252Z,14.95
2022-07-26T18:20:11.034Z,12.32
2022-07-26T18:22:39.034Z,12.23
2022-07-26T18:25:09.333Z,11.75
2022-07-26T18:27:41.468Z,10.70
2022-07-26T18:30:09.099Z,13.05
2022-07-26T18:32:36.521Z,11.90
2022-07-26T18:35:04.001Z,12.10
2022-07-26T18:37:33.762Z,10.43
2022-07-26T18:40:02.225Z,11.07
2022-07-26T18:42:29.488Z,10.73
2022-07-26T18:44:56.743Z,11.77
2022-07-26T18:47:29.424Z,10.05
2022-07-26T18:49:59.613Z,9.23
2022-07-26T18:52:31.891Z,9.95
2022-07-26T18:55:07.108Z,10.15
2022-07-26T18:57:36.354Z,11.07
2022-07-26T19:00:15.777Z,12.57
2022-07-26T19:02:45.072Z,11.30
2022-07-26T19:05:14.470Z,11.40
2022-07-26T19:07:41.474Z,10.48
2022-07-26T19:10:10.483Z,13.38
2022-07-26T19:12:43.801Z,12.52
2022-07-26T19:15:11.389Z,11.98
2022-07-26T19:17:38.657Z,14.05
2022-07-26T19:20:09.696Z,11.25
2022-07-26T19:22:39.475Z,13.77
2022-07-26T19:25:10.930Z,15.02
2022-07-26T19:27:40.850Z,13.02
2022-07-26T19:30:09.794Z,11.75
2022-07-26T19:32:38.002Z,12.35
2022-07-26T19:35:06.779Z,12.48
2022-07-26T19:37:33.806Z,11.93
2022-07-26T19:40:04.345Z,11.15
2022-07-26T19:42:33.791Z,12.15
2022-07-26T19:45:01.173Z,13.02
2022-07-26T19:47:29.988Z,16.60
2022-07-26T19:50:00.281Z,11.65
2022-07-26T19:52:32.424Z,15.77
2022-07-26T19:54:59.623Z,12.63
2022-07-26T19:57:29.504Z,12.32
2022-07-26T19:59:56.664Z,12.50
2022-07-26T20:02:24.127Z,13.02
2022-07-26T20:04:52.239Z,17.17
2022-07-26T20:07:24.564Z,12.77
2022-07-26T20:09:51.940Z,13.80
2022-07-26T20:12:20.246Z,13.38
2022-07-26T20:14:47.592Z,14.82
2022-07-26T20:17:14.773Z,16.23
2022-07-26T20:19:42.585Z,11.15
2022-07-26T20:22:09.669Z,15.20
2022-07-26T20:24:38.362Z,12.23
2022-07-26T20:27:08.549Z,12.02
2022-07-26T20:29:36.418Z,14.15
2022-07-26T20:32:04.121Z,16.95
2022-07-26T20:34:31.362Z,14.27
2022-07-26T20:36:58.534Z,12.80
2022-07-26T20:39:27.850Z,10.85
2022-07-26T20:41:55.374Z,13.77
2022-07-26T20:44:28.187Z,13.45
2022-07-26T20:46:55.837Z,14.55
2022-07-26T20:49:23.256Z,12.18
2022-07-26T20:51:55.869Z,14.10
2022-07-26T20:54:22.878Z,13.52
2022-07-26T20:56:50.315Z,16.00
2022-07-26T20:59:17.379Z,14.68
2022-07-26T21:01:46.992Z,17.13
2022-07-26T21:04:17.130Z,15.27
2022-07-26T21:06:47.302Z,12.02
2022-07-26T21:09:18.541Z,14.20
2022-07-26T21:11:45.566Z,14.13
2022-07-26T21:14:12.548Z,12.63
2022-07-26T21:16:40.317Z,13.25
2022-07-26T21:19:07.825Z,12.65
2022-07-26T21:21:37.110Z,16.38
2022-07-26T21:24:06.050Z,14.65
2022-07-26T21:26:33.379Z,15.30
2022-07-26T21:29:02.481Z,14.85
2022-07-26T21:31:29.941Z,13.18
2022-07-26T21:33:57.099Z,13.32
2022-07-26T21:36:24.566Z,12.50
2022-07-26T21:38:54.474Z,14.80
2022-07-26T21:41:21.498Z,17.63
2022-07-26T21:43:50.978Z,16.10
2022-07-26T21:46:18.196Z,20.30
2022-07-26T21:48:45.242Z,18.05
2022-07-26T21:51:12.392Z,15.40
2022-07-26T21:53:39.874Z,17.88
2022-07-26T21:56:06.992Z,16.13
2022-07-26T21:58:39.096Z,15.73
2022-07-26T22:01:08.075Z,15.70
2022-07-26T22:03:36.392Z,15.20
2022-07-26T22:06:04.678Z,15.98
2022-07-26T22:08:34.282Z,17.95
2022-07-26T22:11:02.034Z,18.08
2022-07-26T22:13:29.103Z,17.55
2022-07-26T22:15:59.087Z,19.00
2022-07-26T22:18:28.830Z,17.85
2022-07-26T22:20:56.317Z,19.33
2022-07-26T22:23:27.603Z,21.20
2022-07-26T22:25:57.231Z,25.08
2022-07-26T22:28:24.581Z,20.15
2022-07-26T22:30:51.941Z,19.27
2022-07-26T22:33:19.530Z,21.02
2022-07-26T22:35:47.224Z,21.15
2022-07-26T22:38:14.872Z,18.60
2022-07-26T22:40:42.710Z,18.08
2022-07-26T22:43:12.699Z,19.15
2022-07-26T22:45:39.777Z,18.38
2022-07-26T22:48:10.199Z,21.40
2022-07-26T22:50:37.473Z,18.60
2022-07-26T22:53:05.243Z,20.30
2022-07-26T22:55:32.417Z,18.52
2022-07-26T22:58:00.117Z,20.75
2022-07-26T23:00:27.185Z,21.55
2022-07-26T23:02:56.666Z,20.85
2022-07-26T23:05:26.594Z,18.23
2022-07-26T23:08:43.893Z,19.95
2022-07-26T23:10:58.979Z,21.73
2022-07-26T23:13:26.185Z,22.92
2022-07-26T23:16:00.320Z,22.98
2022-07-26T23:18:30.074Z,25.65
2022-07-26T23:20:57.481Z,22.45
2022-07-26T23:23:28.518Z,21.20
2022-07-26T23:25:58.485Z,21.85
2022-07-26T23:28:36.782Z,22.33
2022-07-26T23:31:14.944Z,23.00
2022-07-26T23:33:52.634Z,21.27
2022-07-26T23:36:27.175Z,19.50
2022-07-26T23:38:55.817Z,19.27
2022-07-26T23:41:23.694Z,22.45
2022-07-26T23:43:51.202Z,24.65
2022-07-26T23:46:20.731Z,21.85
2022-07-26T23:48:48.411Z,21.90
2022-07-26T23:51:15.482Z,20.83
2022-07-26T23:53:44.867Z,19.75
2022-07-26T23:56:12.407Z,19.75
2022-07-26T23:58:39.602Z,20.75
